Overpeck, Ohio
Current Conditions -  °F | °C
As of 9:53 AM on Saturday 25 Oct 2014 (Local Time) from KHAO Reporting Station
Haze Haze  
Wind Chill: 53°   Ceiling: 2900
Heat Index: 53°   Visibility: 5mi
Dew Point: 50°   Wind: 0mph
Humidity: 89%   Direction: NA
Pressure: 30"   Gusts: NA
Location:  39.45°N, 84.51°W
Report Text: KHAO 251353Z AUTO 00000KT 5SM BR OVC029 12/10 A3000 RMK AO2 SLP161 T01170100 $
Loading
Personal Weather Stations






























Interactive Weather Map
Tropical Storm Tracking
New forecast layout! Learn more

10-Day Weather Forecast

Advertisements
Track Severe Weather on mobile